createdAt,value
2017-11-05T00:00:05.632Z,0
2017-11-05T00:00:46.183Z,0
2017-11-05T00:01:26.773Z,0
2017-11-05T00:02:07.278Z,0
2017-11-05T00:02:47.816Z,0
2017-11-05T00:03:28.354Z,0
2017-11-05T00:04:08.910Z,0
2017-11-05T00:04:49.475Z,0
2017-11-05T00:05:30.022Z,0
2017-11-05T00:06:10.539Z,0
2017-11-05T00:06:51.105Z,0
2017-11-05T00:07:31.709Z,0
2017-11-05T00:08:12.292Z,0
2017-11-05T00:08:52.822Z,0
2017-11-05T00:09:33.329Z,0
2017-11-05T00:10:13.878Z,0
2017-11-05T00:10:54.395Z,0
2017-11-05T00:11:34.924Z,0
2017-11-05T00:12:15.542Z,0
2017-11-05T00:12:56.069Z,0
2017-11-05T00:13:36.637Z,0
2017-11-05T00:14:17.071Z,0
2017-11-05T00:14:57.608Z,0
2017-11-05T00:15:38.120Z,0
2017-11-05T00:16:18.660Z,0
2017-11-05T00:16:59.185Z,0
2017-11-05T00:17:39.739Z,0
2017-11-05T00:18:20.333Z,0
2017-11-05T00:19:00.837Z,0
2017-11-05T00:19:41.382Z,0
2017-11-05T00:20:21.861Z,0
2017-11-05T00:21:02.421Z,0
2017-11-05T00:21:43.009Z,0
2017-11-05T00:22:23.466Z,0
2017-11-05T00:23:03.975Z,0
2017-11-05T00:23:44.556Z,0
2017-11-05T00:24:25.066Z,0
2017-11-05T00:25:05.600Z,0
2017-11-05T00:25:46.209Z,0
2017-11-05T00:26:26.753Z,0
2017-11-05T00:27:07.309Z,0
2017-11-05T00:27:47.870Z,0
2017-11-05T00:28:28.416Z,0
2017-11-05T00:29:08.967Z,0
2017-11-05T00:29:49.523Z,0
2017-11-05T00:30:30.094Z,0
2017-11-05T00:31:10.641Z,0
2017-11-05T00:31:51.226Z,0
2017-11-05T00:32:31.713Z,0
2017-11-05T00:33:12.274Z,0
2017-11-05T00:33:52.825Z,0
2017-11-05T00:34:33.353Z,0
2017-11-05T00:35:13.879Z,0
2017-11-05T00:35:54.441Z,0
2017-11-05T00:36:34.977Z,0
2017-11-05T00:37:15.499Z,0
2017-11-05T00:37:56.093Z,0
2017-11-05T00:38:36.572Z,0
2017-11-05T00:39:17.078Z,0
2017-11-05T00:39:57.703Z,0
2017-11-05T00:40:38.178Z,0
2017-11-05T00:41:18.697Z,0
2017-11-05T00:41:59.222Z,0
2017-11-05T00:42:39.764Z,0
2017-11-05T00:43:20.314Z,0
2017-11-05T00:44:00.863Z,0
2017-11-05T00:44:41.374Z,0
2017-11-05T00:45:21.919Z,0
2017-11-05T00:46:02.413Z,0
2017-11-05T00:46:42.984Z,0
2017-11-05T00:47:23.553Z,0
2017-11-05T00:48:04.063Z,0
2017-11-05T00:48:44.625Z,0
2017-11-05T00:49:25.127Z,0
2017-11-05T00:50:05.698Z,0
2017-11-05T00:50:46.231Z,0
2017-11-05T00:51:26.785Z,0
2017-11-05T00:52:07.349Z,0
2017-11-05T00:52:47.887Z,0
2017-11-05T00:53:28.451Z,0
2017-11-05T00:54:09.004Z,0
2017-11-05T00:54:49.568Z,0
2017-11-05T00:55:30.088Z,0
2017-11-05T00:56:10.584Z,0
2017-11-05T00:56:51.134Z,0
2017-11-05T00:57:31.644Z,0
2017-11-05T00:58:12.196Z,0
2017-11-05T00:58:52.750Z,0
2017-11-05T00:59:33.299Z,0
2017-11-05T01:00:13.813Z,0
2017-11-05T01:00:54.360Z,0
2017-11-05T01:01:34.925Z,0
2017-11-05T01:02:15.488Z,0
2017-11-05T01:02:55.973Z,0
2017-11-05T01:03:36.517Z,0
2017-11-05T01:04:17.063Z,0
2017-11-05T01:04:57.594Z,0
2017-11-05T01:05:38.101Z,0
2017-11-05T01:06:18.659Z,0
2017-11-05T01:06:59.224Z,0
2017-11-05T01:07:39.729Z,0
2017-11-05T01:08:20.289Z,0
2017-11-05T01:09:00.844Z,0
2017-11-05T01:09:41.426Z,0
2017-11-05T01:10:21.980Z,0
2017-11-05T01:11:02.537Z,0
2017-11-05T01:11:43.112Z,0
2017-11-05T01:12:23.636Z,0
2017-11-05T01:13:04.186Z,0
2017-11-05T01:13:44.770Z,0
2017-11-05T01:14:25.310Z,0
2017-11-05T01:15:05.860Z,0
2017-11-05T01:15:46.404Z,0
2017-11-05T01:16:26.914Z,0
2017-11-05T01:17:07.466Z,0
2017-11-05T01:17:48.019Z,0
2017-11-05T01:18:28.553Z,0
2017-11-05T01:19:09.090Z,0
2017-11-05T01:19:49.658Z,0
2017-11-05T01:20:30.187Z,0
2017-11-05T01:21:10.914Z,0
2017-11-05T01:21:51.388Z,0
2017-11-05T01:22:31.937Z,0
2017-11-05T01:23:12.470Z,0
2017-11-05T01:23:53.043Z,0
2017-11-05T01:24:33.603Z,0
2017-11-05T01:25:14.149Z,0
2017-11-05T01:25:54.711Z,0
2017-11-05T01:26:35.224Z,0
2017-11-05T01:27:15.794Z,0
2017-11-05T01:27:56.305Z,0
2017-11-05T01:28:36.857Z,0
2017-11-05T01:29:17.374Z,0
2017-11-05T01:29:57.920Z,0
2017-11-05T01:30:38.438Z,0
2017-11-05T01:31:18.988Z,0
2017-11-05T01:31:59.519Z,0
2017-11-05T01:32:40.094Z,0
2017-11-05T01:33:20.616Z,0
2017-11-05T01:34:01.191Z,0
2017-11-05T01:34:41.696Z,0
2017-11-05T01:35:22.230Z,0
2017-11-05T01:36:02.912Z,0
2017-11-05T01:36:43.497Z,0
2017-11-05T01:37:24.024Z,0
2017-11-05T01:38:04.602Z,0
2017-11-05T01:38:45.176Z,0
2017-11-05T01:39:25.653Z,0
2017-11-05T01:40:06.165Z,0
2017-11-05T01:40:46.731Z,0
2017-11-05T01:41:27.264Z,0
2017-11-05T01:42:07.755Z,0
2017-11-05T01:42:48.310Z,0
2017-11-05T01:43:28.799Z,0
2017-11-05T01:44:09.353Z,0
2017-11-05T01:44:49.932Z,0
2017-11-05T01:45:30.483Z,0
2017-11-05T01:46:11.029Z,0
2017-11-05T01:46:51.576Z,0
2017-11-05T01:47:32.083Z,0
2017-11-05T01:48:12.633Z,0
2017-11-05T01:48:53.178Z,0
2017-11-05T01:49:33.710Z,0
2017-11-05T01:50:14.342Z,0
2017-11-05T01:50:54.885Z,0
2017-11-05T01:51:35.436Z,0
2017-11-05T01:52:15.934Z,0
2017-11-05T01:52:56.448Z,0
2017-11-05T01:53:36.982Z,0
2017-11-05T01:54:17.508Z,0
2017-11-05T01:54:58.022Z,0
2017-11-05T01:55:38.550Z,0
2017-11-05T01:56:19.099Z,0
2017-11-05T01:56:59.629Z,0
2017-11-05T01:57:40.171Z,0
2017-11-05T01:58:20.790Z,0
2017-11-05T01:59:01.386Z,0
2017-11-05T01:59:41.959Z,0
2017-11-05T02:00:22.460Z,0
2017-11-05T02:01:03.033Z,0
2017-11-05T02:01:43.523Z,0
2017-11-05T02:02:24.071Z,0
2017-11-05T02:03:04.578Z,0
2017-11-05T02:03:45.123Z,0
2017-11-05T02:04:25.649Z,0
2017-11-05T02:05:06.250Z,0
2017-11-05T02:05:46.762Z,0
2017-11-05T02:06:27.334Z,0
2017-11-05T02:07:07.815Z,0
2017-11-05T02:07:48.325Z,0
2017-11-05T02:08:28.886Z,0
2017-11-05T02:09:09.432Z,0
2017-11-05T02:09:50.013Z,0
2017-11-05T02:10:30.640Z,0
2017-11-05T02:11:11.329Z,0
2017-11-05T02:11:51.898Z,0
2017-11-05T02:12:32.415Z,0
2017-11-05T02:13:13.007Z,0
2017-11-05T02:13:53.448Z,0
2017-11-05T02:14:34.023Z,0
2017-11-05T02:15:14.632Z,0
2017-11-05T02:15:55.193Z,0
2017-11-05T02:16:35.696Z,0
2017-11-05T02:17:16.253Z,0
2017-11-05T02:17:56.896Z,0
2017-11-05T02:18:37.392Z,0
2017-11-05T02:19:17.885Z,0
2017-11-05T02:19:58.403Z,0
2017-11-05T02:20:38.942Z,0
2017-11-05T02:21:19.448Z,0
2017-11-05T02:22:00.035Z,0
2017-11-05T02:22:40.558Z,0
2017-11-05T02:23:21.143Z,0
2017-11-05T02:24:01.676Z,0
2017-11-05T02:24:42.219Z,0
2017-11-05T02:25:22.751Z,0
2017-11-05T02:26:03.307Z,0
2017-11-05T02:26:43.803Z,0
2017-11-05T02:27:24.327Z,0
2017-11-05T02:28:04.874Z,0
2017-11-05T02:28:45.388Z,0
2017-11-05T02:29:25.946Z,0
2017-11-05T02:30:06.504Z,0
2017-11-05T02:30:47.071Z,0
2017-11-05T02:31:27.814Z,0
2017-11-05T02:32:08.337Z,0
2017-11-05T02:32:48.868Z,0
2017-11-05T02:33:29.408Z,0
2017-11-05T02:34:09.940Z,0
2017-11-05T02:34:50.489Z,0
2017-11-05T02:35:31.077Z,0
2017-11-05T02:36:11.597Z,0
2017-11-05T02:36:52.162Z,0
2017-11-05T02:37:32.716Z,0
2017-11-05T02:38:13.277Z,0
2017-11-05T02:38:53.834Z,0
2017-11-05T02:39:34.357Z,0
2017-11-05T02:40:14.926Z,0
2017-11-05T02:40:55.456Z,0
2017-11-05T02:41:36.026Z,0
2017-11-05T02:42:16.626Z,0
2017-11-05T02:42:57.227Z,0
2017-11-05T02:43:37.878Z,0
2017-11-05T02:44:18.365Z,0
2017-11-05T02:44:58.891Z,0
2017-11-05T02:45:39.427Z,0
2017-11-05T02:46:19.991Z,0
2017-11-05T02:47:00.535Z,0
2017-11-05T02:47:41.186Z,0
2017-11-05T02:48:21.669Z,0
2017-11-05T02:49:02.222Z,0
2017-11-05T02:49:42.775Z,0
2017-11-05T02:50:23.281Z,0
2017-11-05T02:51:03.821Z,0
2017-11-05T02:51:44.390Z,0
2017-11-05T02:52:24.892Z,0
2017-11-05T02:53:05.468Z,0
2017-11-05T02:53:46.055Z,0
2017-11-05T02:54:26.823Z,0
2017-11-05T02:55:07.508Z,0
2017-11-05T02:55:48.096Z,0
2017-11-05T02:56:28.648Z,0
2017-11-05T02:57:09.221Z,0
2017-11-05T02:57:49.725Z,0
2017-11-05T02:58:30.255Z,0
2017-11-05T02:59:10.805Z,0
2017-11-05T02:59:51.354Z,0
2017-11-05T03:00:31.867Z,0
2017-11-05T03:01:12.429Z,0
2017-11-05T03:01:52.947Z,0
2017-11-05T03:02:33.504Z,0
2017-11-05T03:03:14.036Z,0
2017-11-05T03:03:54.573Z,0
2017-11-05T03:04:35.126Z,0
2017-11-05T03:05:15.699Z,0
2017-11-05T03:05:56.249Z,0
2017-11-05T03:06:36.806Z,0
2017-11-05T03:07:17.364Z,0
2017-11-05T03:07:57.924Z,0
2017-11-05T03:08:38.497Z,0
2017-11-05T03:09:19.015Z,0
2017-11-05T03:09:59.563Z,0
2017-11-05T03:10:40.116Z,0
2017-11-05T03:11:20.663Z,0
2017-11-05T03:12:01.187Z,0
2017-11-05T03:12:41.759Z,0
2017-11-05T03:13:22.479Z,0
2017-11-05T03:14:03.023Z,0
2017-11-05T03:14:43.549Z,0
2017-11-05T03:15:24.089Z,0
2017-11-05T03:16:04.635Z,0
2017-11-05T03:16:45.159Z,0
2017-11-05T03:17:25.730Z,0
2017-11-05T03:18:06.294Z,0
2017-11-05T03:18:46.847Z,0
2017-11-05T03:19:27.578Z,0
2017-11-05T03:20:08.226Z,0
2017-11-05T03:20:48.772Z,0
2017-11-05T03:21:29.335Z,0
2017-11-05T03:22:09.879Z,0
2017-11-05T03:22:50.429Z,0
2017-11-05T03:23:30.951Z,0
2017-11-05T03:24:11.510Z,0
2017-11-05T03:24:52.059Z,0
2017-11-05T03:25:32.612Z,0
2017-11-05T03:26:13.170Z,0
2017-11-05T03:26:53.712Z,0
2017-11-05T03:27:34.213Z,0
2017-11-05T03:28:14.793Z,0
2017-11-05T03:28:55.293Z,0
2017-11-05T03:29:35.844Z,0
2017-11-05T03:30:16.393Z,0
2017-11-05T03:30:56.916Z,0
2017-11-05T03:31:37.606Z,0
2017-11-05T03:32:18.113Z,0
2017-11-05T03:32:58.615Z,0
2017-11-05T03:33:39.199Z,0
2017-11-05T03:34:19.761Z,0
2017-11-05T03:35:00.271Z,0
2017-11-05T03:35:40.793Z,0
2017-11-05T03:36:21.290Z,0
2017-11-05T03:37:01.831Z,0
2017-11-05T03:37:42.347Z,0
2017-11-05T03:38:22.887Z,0
2017-11-05T03:39:03.416Z,0
2017-11-05T03:39:43.956Z,0
2017-11-05T03:40:24.446Z,0
2017-11-05T03:41:04.987Z,0
2017-11-05T03:41:45.541Z,0
2017-11-05T03:42:26.076Z,0
2017-11-05T03:43:06.687Z,0
2017-11-05T03:43:47.253Z,0
2017-11-05T03:44:27.725Z,0
2017-11-05T03:45:08.298Z,0
2017-11-05T03:45:48.860Z,0
2017-11-05T03:46:29.373Z,0
2017-11-05T03:47:10.024Z,0
2017-11-05T03:47:50.470Z,0
2017-11-05T03:48:30.990Z,0
2017-11-05T03:49:11.522Z,0
2017-11-05T03:49:52.052Z,0
2017-11-05T03:50:32.566Z,0
2017-11-05T03:51:13.063Z,0
2017-11-05T03:51:53.599Z,0
2017-11-05T03:52:34.137Z,0
2017-11-05T03:53:14.714Z,0
2017-11-05T03:53:55.241Z,0
2017-11-05T03:54:35.765Z,0
2017-11-05T03:55:16.320Z,0
2017-11-05T03:55:56.892Z,0
2017-11-05T03:56:37.370Z,0
2017-11-05T03:57:17.930Z,0
2017-11-05T03:57:58.565Z,0
2017-11-05T03:58:39.126Z,0
2017-11-05T03:59:19.651Z,0
2017-11-05T04:00:00.405Z,0
2017-11-05T04:00:41.313Z,0
2017-11-05T04:01:21.788Z,0
2017-11-05T04:02:02.336Z,0
2017-11-05T04:02:42.838Z,0
2017-11-05T04:03:23.389Z,0
2017-11-05T04:04:04.006Z,0
2017-11-05T04:04:44.659Z,0
2017-11-05T04:05:25.217Z,0
2017-11-05T04:06:05.719Z,0
2017-11-05T04:06:46.279Z,0
2017-11-05T04:07:26.821Z,0
2017-11-05T04:08:07.328Z,0
2017-11-05T04:08:47.859Z,0
2017-11-05T04:09:28.369Z,0
2017-11-05T04:10:08.930Z,0
2017-11-05T04:10:49.495Z,0
2017-11-05T04:11:30.133Z,0
2017-11-05T04:12:10.682Z,0
2017-11-05T04:12:51.234Z,0
2017-11-05T04:13:31.824Z,0
2017-11-05T04:14:12.396Z,0
2017-11-05T04:14:52.898Z,0
2017-11-05T04:15:33.455Z,0
2017-11-05T04:16:14.023Z,0
2017-11-05T04:16:54.601Z,0
2017-11-05T04:17:35.061Z,0
2017-11-05T04:18:15.590Z,0
2017-11-05T04:18:56.105Z,0
2017-11-05T04:19:36.679Z,0
2017-11-05T04:20:17.211Z,0
2017-11-05T04:20:57.704Z,0
2017-11-05T04:21:38.286Z,0
2017-11-05T04:22:18.795Z,0
2017-11-05T04:22:59.394Z,0
2017-11-05T04:23:39.953Z,0
2017-11-05T04:24:20.512Z,0
2017-11-05T04:25:01.059Z,0
2017-11-05T04:25:41.562Z,0
2017-11-05T04:26:22.154Z,0
2017-11-05T04:27:02.649Z,0
2017-11-05T04:27:43.217Z,0
2017-11-05T04:28:23.852Z,0
2017-11-05T04:29:04.377Z,0
2017-11-05T04:29:44.978Z,0
2017-11-05T04:30:25.517Z,0
2017-11-05T04:31:06.085Z,0
2017-11-05T04:31:46.635Z,0
2017-11-05T04:32:27.147Z,0
2017-11-05T04:33:07.684Z,0
2017-11-05T04:33:48.209Z,0
2017-11-05T04:34:28.741Z,0
2017-11-05T04:35:09.307Z,0
2017-11-05T04:35:49.821Z,0
2017-11-05T04:36:30.473Z,0
2017-11-05T04:37:11.028Z,0
2017-11-05T04:37:51.540Z,0
2017-11-05T04:38:32.078Z,0
2017-11-05T04:39:12.651Z,0
2017-11-05T04:39:53.146Z,0
2017-11-05T04:40:33.655Z,0
2017-11-05T04:41:14.187Z,0
2017-11-05T04:41:54.763Z,0
2017-11-05T04:42:35.294Z,0
2017-11-05T04:43:15.829Z,0
2017-11-05T04:43:56.399Z,0
2017-11-05T04:44:36.939Z,0
2017-11-05T04:45:17.467Z,0
2017-11-05T04:45:58.029Z,0
2017-11-05T04:46:38.565Z,0
2017-11-05T04:47:19.111Z,0
2017-11-05T04:47:59.689Z,0
2017-11-05T04:48:40.229Z,0
2017-11-05T04:49:20.779Z,0
2017-11-05T04:50:01.285Z,0
2017-11-05T04:50:41.830Z,0
2017-11-05T04:51:22.371Z,0
2017-11-05T04:52:02.938Z,0
2017-11-05T04:52:43.464Z,0
2017-11-05T04:53:24.334Z,0
2017-11-05T04:54:04.908Z,0
2017-11-05T04:54:45.537Z,0
2017-11-05T04:55:26.081Z,0
2017-11-05T04:56:06.638Z,0
2017-11-05T04:56:47.187Z,0
2017-11-05T04:57:27.722Z,0
2017-11-05T04:58:08.275Z,0
2017-11-05T04:58:48.842Z,0
2017-11-05T04:59:29.327Z,0
2017-11-05T05:00:09.858Z,0
2017-11-05T05:00:50.398Z,0
2017-11-05T05:01:30.945Z,0
2017-11-05T05:02:11.501Z,0
2017-11-05T05:02:52.056Z,0
2017-11-05T05:03:32.601Z,0
2017-11-05T05:04:13.154Z,0
2017-11-05T05:04:53.865Z,0
2017-11-05T05:05:34.262Z,0
2017-11-05T05:06:14.824Z,0
2017-11-05T05:06:55.369Z,0
2017-11-05T05:07:35.925Z,0
2017-11-05T05:08:16.507Z,0
2017-11-05T05:08:57.066Z,0
2017-11-05T05:09:37.568Z,0
2017-11-05T05:10:18.098Z,0
2017-11-05T05:10:58.617Z,0
2017-11-05T05:11:39.303Z,0
2017-11-05T05:12:19.662Z,0
2017-11-05T05:13:00.192Z,0
2017-11-05T05:13:40.728Z,0
2017-11-05T05:14:21.282Z,0
2017-11-05T05:15:01.803Z,0
2017-11-05T05:15:42.355Z,0
2017-11-05T05:16:22.882Z,0
2017-11-05T05:17:03.453Z,0
2017-11-05T05:17:43.996Z,0
2017-11-05T05:18:24.546Z,0
2017-11-05T05:19:05.101Z,0
2017-11-05T05:19:45.642Z,0
2017-11-05T05:20:26.222Z,0
2017-11-05T05:21:06.750Z,0
2017-11-05T05:21:47.312Z,0
2017-11-05T05:22:27.969Z,0
2017-11-05T05:23:08.370Z,0
2017-11-05T05:23:48.926Z,0
2017-11-05T05:24:29.491Z,0
2017-11-05T05:25:10.052Z,0
2017-11-05T05:25:50.598Z,0
2017-11-05T05:26:31.151Z,0
2017-11-05T05:27:11.709Z,0
2017-11-05T05:27:52.262Z,0
2017-11-05T05:28:32.818Z,0
2017-11-05T05:29:13.402Z,0
2017-11-05T05:29:54.017Z,0
2017-11-05T05:30:34.561Z,0
2017-11-05T05:31:15.131Z,0
2017-11-05T05:31:55.682Z,0
2017-11-05T05:32:36.211Z,0
2017-11-05T05:33:16.857Z,0
2017-11-05T05:33:57.447Z,0
2017-11-05T05:34:38.015Z,0
2017-11-05T05:35:18.526Z,0
2017-11-05T05:35:59.088Z,0
2017-11-05T05:36:39.624Z,0
2017-11-05T05:37:20.173Z,0
2017-11-05T05:38:00.707Z,0
2017-11-05T05:38:41.263Z,0
2017-11-05T05:39:21.916Z,0
2017-11-05T05:40:02.354Z,0
2017-11-05T05:40:42.898Z,0
2017-11-05T05:41:23.450Z,0
2017-11-05T05:42:04.523Z,0
2017-11-05T05:42:45.066Z,0
2017-11-05T05:43:25.570Z,0
2017-11-05T05:44:06.120Z,0
2017-11-05T05:44:46.656Z,0
2017-11-05T05:45:27.196Z,0
2017-11-05T05:46:08.235Z,0
2017-11-05T05:46:48.757Z,0
2017-11-05T05:47:29.299Z,0
2017-11-05T05:48:09.907Z,0
2017-11-05T05:48:50.365Z,0
2017-11-05T05:49:30.892Z,0
2017-11-05T05:50:11.428Z,0
2017-11-05T05:50:51.975Z,0
2017-11-05T05:51:32.508Z,0
2017-11-05T05:52:13.058Z,0
2017-11-05T05:52:53.651Z,0
2017-11-05T05:53:34.170Z,0
2017-11-05T05:54:14.681Z,0
2017-11-05T05:54:55.192Z,0
2017-11-05T05:55:35.736Z,0
2017-11-05T05:56:16.253Z,0
2017-11-05T05:56:56.800Z,0
2017-11-05T05:57:37.310Z,0
2017-11-05T05:58:17.888Z,0
2017-11-05T05:58:58.470Z,0
2017-11-05T05:59:38.942Z,0
2017-11-05T06:00:19.480Z,4
2017-11-05T06:01:00.036Z,4
2017-11-05T06:01:40.586Z,0
2017-11-05T06:02:21.133Z,0
2017-11-05T06:03:01.689Z,4
2017-11-05T06:03:42.191Z,4
2017-11-05T06:04:22.700Z,4
2017-11-05T06:05:03.350Z,4
2017-11-05T06:05:43.877Z,4
2017-11-05T06:06:24.420Z,4
2017-11-05T06:07:04.921Z,4
2017-11-05T06:07:45.477Z,4
2017-11-05T06:08:26.053Z,4
2017-11-05T06:09:06.591Z,8
2017-11-05T06:09:47.145Z,8
2017-11-05T06:10:27.701Z,8
2017-11-05T06:11:08.226Z,4
2017-11-05T06:11:48.759Z,8
2017-11-05T06:12:29.306Z,8
2017-11-05T06:13:09.861Z,8
2017-11-05T06:13:50.522Z,12
2017-11-05T06:14:31.066Z,8
2017-11-05T06:15:11.721Z,8
2017-11-05T06:15:52.272Z,12
2017-11-05T06:16:32.822Z,12
2017-11-05T06:17:13.369Z,16
2017-11-05T06:17:53.938Z,12
2017-11-05T06:18:34.475Z,16
2017-11-05T06:19:15.423Z,16
2017-11-05T06:19:55.965Z,20
2017-11-05T06:20:36.509Z,20
2017-11-05T06:21:17.022Z,20
2017-11-05T06:21:57.565Z,24
2017-11-05T06:22:38.105Z,24
2017-11-05T06:23:18.631Z,24
2017-11-05T06:23:59.188Z,28
2017-11-05T06:24:39.742Z,32
2017-11-05T06:25:20.308Z,32
2017-11-05T06:26:00.839Z,32
2017-11-05T06:26:41.416Z,36
2017-11-05T06:27:21.928Z,40
2017-11-05T06:28:02.473Z,44
2017-11-05T06:28:42.993Z,44
2017-11-05T06:29:23.516Z,48
2017-11-05T06:30:04.048Z,48
2017-11-05T06:30:44.616Z,52
2017-11-05T06:31:25.170Z,56
2017-11-05T06:32:05.702Z,60
2017-11-05T06:32:46.268Z,64
2017-11-05T06:33:26.844Z,68
2017-11-05T06:34:07.424Z,76
2017-11-05T06:34:47.921Z,80
2017-11-05T06:35:28.490Z,88
2017-11-05T06:36:09.636Z,88
2017-11-05T06:36:50.169Z,92
2017-11-05T06:37:30.716Z,96
2017-11-05T06:38:11.262Z,104
2017-11-05T06:38:51.799Z,112
2017-11-05T06:39:32.314Z,116
2017-11-05T06:40:12.856Z,128
2017-11-05T06:40:53.427Z,140
2017-11-05T06:41:34.011Z,152
2017-11-05T06:42:14.514Z,160
2017-11-05T06:42:55.045Z,176
2017-11-05T06:43:35.568Z,188
2017-11-05T06:44:16.117Z,196
2017-11-05T06:44:56.666Z,208
2017-11-05T06:45:37.174Z,220
2017-11-05T06:46:17.719Z,236
2017-11-05T06:46:58.316Z,248
2017-11-05T06:47:38.870Z,260
2017-11-05T06:48:19.365Z,264
2017-11-05T06:48:59.903Z,268
2017-11-05T06:49:40.460Z,276
2017-11-05T06:50:21.052Z,280
2017-11-05T06:51:01.614Z,284
2017-11-05T06:51:42.153Z,288
2017-11-05T06:52:22.710Z,300
2017-11-05T06:53:03.301Z,316
2017-11-05T06:53:43.831Z,336
2017-11-05T06:54:24.351Z,352
2017-11-05T06:55:04.872Z,368
2017-11-05T06:55:45.437Z,380
2017-11-05T06:56:25.986Z,388
2017-11-05T06:57:06.508Z,404
2017-11-05T06:57:47.090Z,424
2017-11-05T06:58:27.700Z,448
2017-11-05T06:59:08.247Z,468
2017-11-05T06:59:48.780Z,476
2017-11-05T07:00:29.456Z,480
2017-11-05T07:01:10.004Z,488
2017-11-05T07:01:50.580Z,492
2017-11-05T07:02:31.120Z,508
2017-11-05T07:03:11.685Z,532
2017-11-05T07:03:52.241Z,564
2017-11-05T07:04:32.753Z,604
2017-11-05T07:05:13.352Z,640
2017-11-05T07:05:53.815Z,668
2017-11-05T07:06:34.354Z,692
2017-11-05T07:07:14.908Z,716
2017-11-05T07:07:55.511Z,732
2017-11-05T07:08:36.086Z,748
2017-11-05T07:09:16.601Z,748
2017-11-05T07:09:57.133Z,748
2017-11-05T07:10:37.663Z,764
2017-11-05T07:11:18.191Z,780
2017-11-05T07:11:58.727Z,788
2017-11-05T07:12:39.297Z,768
2017-11-05T07:13:19.810Z,736
2017-11-05T07:14:00.391Z,700
2017-11-05T07:14:40.910Z,680
2017-11-05T07:15:21.472Z,668
2017-11-05T07:16:02.009Z,664
2017-11-05T07:16:42.554Z,644
2017-11-05T07:17:23.108Z,640
2017-11-05T07:18:03.625Z,648
2017-11-05T07:18:44.194Z,660
2017-11-05T07:19:24.760Z,676
2017-11-05T07:20:05.236Z,692
2017-11-05T07:20:45.881Z,708
2017-11-05T07:21:26.523Z,740
2017-11-05T07:22:07.804Z,772
2017-11-05T07:22:48.326Z,812
2017-11-05T07:23:28.882Z,860
2017-11-05T07:24:09.468Z,932
2017-11-05T07:24:49.950Z,1028
2017-11-05T07:25:30.544Z,1120
2017-11-05T07:26:11.059Z,1212
2017-11-05T07:26:51.611Z,1312
2017-11-05T07:27:32.156Z,1396
2017-11-05T07:28:12.653Z,1460
2017-11-05T07:28:53.403Z,1508
2017-11-05T07:29:34.045Z,1540
2017-11-05T07:30:14.593Z,1560
2017-11-05T07:30:55.117Z,1592
2017-11-05T07:31:37.162Z,1620
2017-11-05T07:32:17.752Z,1644
2017-11-05T07:32:58.309Z,1660
2017-11-05T07:33:38.830Z,1672
2017-11-05T07:34:19.463Z,1688
2017-11-05T07:34:59.949Z,1712
2017-11-05T07:35:40.931Z,1736
2017-11-05T07:36:21.589Z,1728
2017-11-05T07:37:02.141Z,1668
2017-11-05T07:37:42.644Z,1572
2017-11-05T07:38:23.173Z,1468
2017-11-05T07:39:03.705Z,1368
2017-11-05T07:39:44.368Z,1276
2017-11-05T07:40:25.755Z,1196
2017-11-05T07:41:05.813Z,1140
2017-11-05T07:41:46.395Z,1100
2017-11-05T07:42:27.281Z,1080
2017-11-05T07:43:08.010Z,1072
2017-11-05T07:43:48.375Z,1068
2017-11-05T07:44:28.872Z,1068
2017-11-05T07:45:09.467Z,1064
2017-11-05T07:45:50.038Z,1048
2017-11-05T07:46:30.544Z,1024
2017-11-05T07:47:11.074Z,988
2017-11-05T07:47:51.617Z,948
2017-11-05T07:48:32.121Z,924
2017-11-05T07:49:12.712Z,916
2017-11-05T07:49:53.232Z,900
2017-11-05T07:50:33.816Z,872
2017-11-05T07:51:14.366Z,820
2017-11-05T07:51:54.927Z,780
2017-11-05T07:52:35.454Z,780
2017-11-05T07:53:16.022Z,768
2017-11-05T07:53:56.632Z,736
2017-11-05T07:54:37.125Z,636
2017-11-05T07:55:17.712Z,548
2017-11-05T07:55:58.237Z,496
2017-11-05T07:56:38.758Z,476
2017-11-05T07:57:19.364Z,488
2017-11-05T07:57:59.877Z,440
2017-11-05T07:58:40.631Z,360
2017-11-05T07:59:21.129Z,336
2017-11-05T08:00:01.754Z,288
2017-11-05T08:00:42.269Z,288
2017-11-05T08:01:22.841Z,284
2017-11-05T08:02:03.388Z,372
2017-11-05T08:02:44.126Z,520
2017-11-05T08:03:24.670Z,556
2017-11-05T08:04:05.239Z,480
2017-11-05T08:04:45.699Z,396
2017-11-05T08:05:26.230Z,368
2017-11-05T08:06:06.800Z,320
2017-11-05T08:06:47.355Z,384
2017-11-05T08:07:27.969Z,532
2017-11-05T08:08:08.589Z,668
2017-11-05T08:08:49.124Z,832
2017-11-05T08:09:29.638Z,968
2017-11-05T08:10:10.232Z,1056
2017-11-05T08:10:50.928Z,1072
2017-11-05T08:11:31.468Z,1188
2017-11-05T08:12:11.986Z,1220
2017-11-05T08:12:52.506Z,1112
2017-11-05T08:13:33.049Z,1132
2017-11-05T08:14:13.579Z,1188
2017-11-05T08:14:54.194Z,1184
2017-11-05T08:15:34.720Z,1172
2017-11-05T08:16:15.284Z,1164
2017-11-05T08:16:55.823Z,1144
2017-11-05T08:17:36.409Z,1140
2017-11-05T08:18:17.023Z,1144
2017-11-05T08:18:57.504Z,1152
2017-11-05T08:19:38.042Z,1168
2017-11-05T08:20:18.562Z,1176
2017-11-05T08:20:59.128Z,1176
2017-11-05T08:21:39.595Z,1168
2017-11-05T08:22:20.156Z,1160
2017-11-05T08:23:00.689Z,1144
2017-11-05T08:23:41.246Z,1124
2017-11-05T08:24:23.226Z,1112
2017-11-05T08:25:03.861Z,1104
2017-11-05T08:25:44.458Z,1096
2017-11-05T08:26:25.414Z,1080
2017-11-05T08:27:06.711Z,1060
2017-11-05T08:27:47.200Z,1048
2017-11-05T08:28:28.290Z,1060
2017-11-05T08:29:09.224Z,1068
2017-11-05T08:29:49.858Z,1076
2017-11-05T08:30:30.404Z,1112
2017-11-05T08:31:10.951Z,1180
2017-11-05T08:31:51.428Z,1244
2017-11-05T08:32:31.959Z,1272
2017-11-05T08:33:12.553Z,1252
2017-11-05T08:33:53.607Z,1132
2017-11-05T08:34:34.094Z,1008
2017-11-05T08:35:14.674Z,828
2017-11-05T08:35:56.209Z,588
2017-11-05T08:36:36.273Z,524
2017-11-05T08:37:16.842Z,488
2017-11-05T08:37:57.336Z,556
2017-11-05T08:38:37.878Z,468
2017-11-05T08:39:18.478Z,420
2017-11-05T08:39:59.039Z,452
2017-11-05T08:40:39.578Z,524
2017-11-05T08:41:20.274Z,648
2017-11-05T08:42:00.848Z,656
2017-11-05T08:42:41.369Z,580
2017-11-05T08:43:21.924Z,484
2017-11-05T08:44:02.499Z,560
2017-11-05T08:44:42.984Z,640
2017-11-05T08:45:23.515Z,584
2017-11-05T08:46:04.060Z,568
2017-11-05T08:46:44.640Z,624
2017-11-05T08:47:25.192Z,652
2017-11-05T08:48:05.769Z,656
2017-11-05T08:48:46.278Z,664
2017-11-05T08:51:21.349Z,628
2017-11-05T08:52:01.905Z,556
2017-11-05T08:52:42.449Z,564
2017-11-05T08:53:23.010Z,536
2017-11-05T08:54:03.642Z,512
2017-11-05T08:54:44.210Z,580
2017-11-05T08:55:24.770Z,672
2017-11-05T08:56:05.318Z,752
2017-11-05T08:56:45.856Z,828
2017-11-05T08:57:26.350Z,900
2017-11-05T08:58:06.948Z,916
2017-11-05T08:58:47.518Z,940
2017-11-05T08:59:28.065Z,968
2017-11-05T09:00:08.548Z,856
2017-11-05T09:00:49.100Z,732
2017-11-05T09:01:29.680Z,740
2017-11-05T09:02:10.328Z,796
2017-11-05T09:02:50.825Z,748
2017-11-05T09:03:31.359Z,804
2017-11-05T09:04:11.898Z,940
2017-11-05T09:04:52.454Z,860
2017-11-05T09:05:33.019Z,780
2017-11-05T09:06:13.584Z,804
2017-11-05T09:06:54.108Z,892
2017-11-05T09:07:34.676Z,784
2017-11-05T09:08:15.199Z,780
2017-11-05T09:08:55.729Z,832
2017-11-05T09:09:36.267Z,904
2017-11-05T09:10:16.855Z,956
2017-11-05T09:10:57.383Z,1012
2017-11-05T09:11:37.907Z,1068
2017-11-05T09:12:18.458Z,1044
2017-11-05T09:12:58.986Z,960
2017-11-05T09:13:39.536Z,932
2017-11-05T09:14:20.079Z,900
2017-11-05T09:15:00.654Z,816
2017-11-05T09:15:41.220Z,828
2017-11-05T09:16:21.839Z,852
2017-11-05T09:17:02.431Z,808
2017-11-05T09:17:42.897Z,672
2017-11-05T09:18:23.424Z,608
2017-11-05T09:19:03.995Z,696
2017-11-05T09:19:44.538Z,712
2017-11-05T09:20:25.186Z,792
2017-11-05T09:21:05.897Z,848
2017-11-05T09:21:46.395Z,908
2017-11-05T09:22:26.990Z,948
2017-11-05T09:23:07.531Z,952
2017-11-05T09:23:48.045Z,924
2017-11-05T09:24:28.601Z,936
2017-11-05T09:25:09.148Z,952
2017-11-05T09:25:49.769Z,968
2017-11-05T09:26:30.352Z,988
2017-11-05T09:27:10.884Z,1056
2017-11-05T09:27:51.529Z,1112
2017-11-05T09:28:32.089Z,1160
2017-11-05T09:29:12.661Z,1136
2017-11-05T09:29:53.201Z,1076
2017-11-05T09:30:33.836Z,1080
2017-11-05T09:31:14.381Z,1164
2017-11-05T09:31:54.942Z,1156
2017-11-05T09:32:35.429Z,1136
2017-11-05T09:33:15.965Z,1152
2017-11-05T09:33:56.532Z,1144
2017-11-05T09:34:37.101Z,1116
2017-11-05T09:35:17.677Z,1112
2017-11-05T09:36:02.731Z,1040
2017-11-05T09:36:41.686Z,988
2017-11-05T09:37:22.296Z,948
2017-11-05T09:38:02.795Z,908
2017-11-05T09:38:43.333Z,896
2017-11-05T09:39:23.889Z,912
2017-11-05T09:40:04.548Z,864
2017-11-05T09:40:45.118Z,804
2017-11-05T09:41:25.631Z,764
2017-11-05T09:42:06.205Z,740
2017-11-05T09:42:46.816Z,744
2017-11-05T09:43:27.329Z,752
2017-11-05T09:44:07.985Z,748
2017-11-05T09:44:48.413Z,720